createdAt,value
2023-10-30T00:01:19.162Z,60.75
2023-10-30T00:03:46.278Z,61.14
2023-10-30T00:06:13.382Z,61.27
2023-10-30T00:08:40.411Z,60.04
2023-10-30T00:11:07.400Z,60.50
2023-10-30T00:13:34.383Z,60.30
2023-10-30T00:16:01.321Z,60.39
2023-10-30T00:18:28.424Z,61.26
2023-10-30T00:20:55.375Z,59.52
2023-10-30T00:23:22.370Z,59.65
2023-10-30T00:25:49.359Z,60.21
2023-10-30T00:28:16.311Z,61.22
2023-10-30T00:30:43.319Z,59.59
2023-10-30T00:33:10.371Z,59.80
2023-10-30T00:35:37.460Z,59.10
2023-10-30T00:38:04.450Z,59.49
2023-10-30T00:40:31.379Z,59.90
2023-10-30T00:42:58.353Z,59.84
2023-10-30T00:45:25.334Z,60.62
2023-10-30T00:47:52.332Z,61.17
2023-10-30T00:50:20.559Z,61.88
2023-10-30T00:52:47.473Z,61.55
2023-10-30T00:55:14.443Z,62.04
2023-10-30T00:57:41.501Z,61.30
2023-10-30T01:00:08.539Z,61.30
2023-10-30T01:02:35.636Z,62.74
2023-10-30T01:05:03.102Z,63.08
2023-10-30T01:07:30.339Z,60.94
2023-10-30T01:09:57.339Z,60.91
2023-10-30T01:12:24.334Z,61.28
2023-10-30T01:14:51.436Z,61.68
2023-10-30T01:17:18.348Z,61.76
2023-10-30T01:19:45.318Z,61.89
2023-10-30T01:22:12.310Z,60.09
2023-10-30T01:24:39.289Z,61.59
2023-10-30T01:27:06.492Z,60.34
2023-10-30T01:29:33.518Z,60.78
2023-10-30T01:32:00.434Z,61.47
2023-10-30T01:34:27.456Z,60.38
2023-10-30T01:36:54.539Z,61.39
2023-10-30T01:39:21.575Z,62.19
2023-10-30T01:41:48.558Z,62.41
2023-10-30T01:44:15.573Z,63.75
2023-10-30T01:46:42.574Z,62.87
2023-10-30T01:49:09.529Z,62.40
2023-10-30T01:51:36.550Z,60.67
2023-10-30T01:54:03.579Z,60.63
2023-10-30T01:56:30.530Z,59.71
2023-10-30T01:58:57.510Z,60.04
2023-10-30T02:01:24.439Z,60.04
2023-10-30T02:03:51.464Z,60.12
2023-10-30T02:06:18.488Z,59.08
2023-10-30T02:08:45.492Z,59.35
2023-10-30T02:11:12.540Z,58.85
2023-10-30T02:13:39.430Z,60.67
2023-10-30T02:16:06.380Z,60.25
2023-10-30T02:18:33.403Z,59.71
2023-10-30T02:21:00.378Z,60.23
2023-10-30T02:23:27.331Z,60.39
2023-10-30T02:25:54.256Z,59.52
2023-10-30T02:28:21.251Z,60.78
2023-10-30T02:30:48.150Z,60.59
2023-10-30T02:33:15.273Z,60.51
2023-10-30T02:35:42.380Z,61.12
2023-10-30T02:38:09.370Z,60.58
2023-10-30T02:40:36.336Z,60.60
2023-10-30T02:43:03.285Z,60.71
2023-10-30T02:45:30.359Z,61.34
2023-10-30T02:47:57.495Z,60.75
2023-10-30T02:50:24.492Z,60.78
2023-10-30T02:52:51.487Z,60.48
2023-10-30T02:55:18.381Z,60.85
2023-10-30T03:00:22.066Z,60.60
2023-10-30T03:02:49.241Z,59.50
2023-10-30T03:05:16.407Z,60.26
2023-10-30T03:07:43.462Z,61.05
2023-10-30T03:10:10.380Z,60.51
2023-10-30T03:12:37.296Z,60.43
2023-10-30T03:15:04.328Z,60.61
2023-10-30T03:17:31.389Z,59.91
2023-10-30T03:19:58.454Z,60.89
2023-10-30T03:22:25.385Z,60.50
2023-10-30T03:24:52.362Z,59.82
2023-10-30T03:27:19.350Z,60.16
2023-10-30T03:29:46.337Z,59.62
2023-10-30T03:32:13.278Z,59.98
2023-10-30T03:34:40.185Z,59.94
2023-10-30T03:37:07.155Z,60.05
2023-10-30T03:39:34.086Z,60.68
2023-10-30T03:42:01.034Z,59.75
2023-10-30T03:44:27.974Z,60.96
2023-10-30T03:46:54.856Z,60.39
2023-10-30T03:49:21.774Z,60.05
2023-10-30T03:51:48.806Z,60.04
2023-10-30T03:54:15.764Z,60.28
2023-10-30T03:56:42.774Z,59.89
2023-10-30T03:59:09.674Z,60.02
2023-10-30T04:01:36.665Z,59.19
2023-10-30T04:04:03.720Z,60.33
2023-10-30T04:06:30.966Z,59.89
2023-10-30T04:08:57.937Z,59.77
2023-10-30T04:11:24.915Z,60.00
2023-10-30T04:13:51.814Z,60.34
2023-10-30T04:16:18.812Z,59.74
2023-10-30T04:18:45.820Z,61.33
2023-10-30T04:21:12.800Z,59.69
2023-10-30T04:23:39.803Z,61.40
2023-10-30T04:26:06.735Z,60.64
2023-10-30T04:28:33.615Z,60.58
2023-10-30T04:31:00.588Z,61.99
2023-10-30T04:33:27.485Z,61.12
2023-10-30T04:35:54.515Z,61.58
2023-10-30T04:38:21.456Z,61.59
2023-10-30T04:40:48.374Z,61.40
2023-10-30T04:43:15.315Z,61.47
2023-10-30T04:45:42.310Z,60.97
2023-10-30T04:48:09.257Z,61.13
2023-10-30T04:50:36.154Z,61.33
2023-10-30T04:53:03.105Z,61.42
2023-10-30T04:55:30.058Z,60.42
2023-10-30T04:57:56.880Z,60.75
2023-10-30T05:00:23.819Z,61.17
2023-10-30T05:02:50.802Z,61.24
2023-10-30T05:05:17.758Z,60.61
2023-10-30T05:07:47.195Z,60.21
2023-10-30T05:10:15.239Z,61.01
2023-10-30T05:12:42.221Z,60.32
2023-10-30T05:15:09.206Z,61.36
2023-10-30T05:17:36.244Z,61.20
2023-10-30T05:20:03.287Z,60.54
2023-10-30T05:22:30.213Z,61.38
2023-10-30T05:24:57.125Z,61.15
2023-10-30T05:27:24.077Z,62.12
2023-10-30T05:29:51.062Z,62.69
2023-10-30T05:32:17.999Z,62.87
2023-10-30T05:34:45.080Z,63.18
2023-10-30T05:37:12.032Z,62.65
2023-10-30T05:39:38.981Z,63.52
2023-10-30T05:42:05.941Z,62.99
2023-10-30T05:44:32.836Z,62.04
2023-10-30T05:46:59.762Z,63.47
2023-10-30T05:49:26.767Z,63.82
2023-10-30T05:51:53.652Z,64.70
2023-10-30T05:54:20.591Z,64.95
2023-10-30T05:56:49.563Z,65.16
2023-10-30T05:59:16.584Z,65.09
2023-10-30T06:01:43.583Z,64.41
2023-10-30T06:04:10.667Z,66.06
2023-10-30T06:06:37.651Z,65.19
2023-10-30T06:09:04.616Z,65.89
2023-10-30T06:11:32.599Z,65.17
2023-10-30T06:13:59.560Z,65.24
2023-10-30T06:16:26.431Z,65.20
2023-10-30T06:18:53.430Z,66.01
2023-10-30T06:21:20.530Z,64.92
2023-10-30T06:23:47.429Z,65.39
2023-10-30T06:26:14.377Z,65.65
2023-10-30T06:28:41.295Z,64.78
2023-10-30T06:31:08.315Z,65.73
2023-10-30T06:33:35.304Z,65.27
2023-10-30T06:36:02.411Z,64.83
2023-10-30T06:38:29.375Z,64.65
2023-10-30T06:40:56.320Z,64.16
2023-10-30T06:43:23.338Z,64.00
2023-10-30T06:45:50.390Z,63.65
2023-10-30T06:48:17.398Z,64.59
2023-10-30T06:50:44.456Z,64.10
2023-10-30T06:53:11.394Z,65.10
2023-10-30T06:55:38.356Z,64.83
2023-10-30T06:58:05.341Z,63.78
2023-10-30T07:00:32.294Z,64.21
2023-10-30T07:02:59.427Z,64.58
2023-10-30T07:05:26.576Z,63.84
2023-10-30T07:07:53.456Z,63.69
2023-10-30T07:10:20.442Z,63.20
2023-10-30T07:12:47.427Z,62.78
2023-10-30T07:15:14.437Z,62.48
2023-10-30T07:17:41.502Z,62.44
2023-10-30T07:20:08.416Z,61.55
2023-10-30T07:22:35.398Z,61.43
2023-10-30T07:25:02.328Z,61.88
2023-10-30T07:27:29.335Z,63.02
2023-10-30T07:29:56.258Z,63.16
2023-10-30T07:32:23.153Z,63.83
2023-10-30T07:34:50.297Z,64.90
2023-10-30T07:37:17.458Z,64.22
2023-10-30T07:39:44.443Z,63.77
2023-10-30T07:42:11.375Z,63.39
2023-10-30T07:44:38.251Z,63.66
2023-10-30T07:47:05.223Z,63.00
2023-10-30T07:49:32.205Z,62.50
2023-10-30T07:51:59.187Z,63.11
2023-10-30T07:54:26.191Z,62.90
2023-10-30T07:56:53.159Z,63.46
2023-10-30T07:59:20.281Z,62.04
2023-10-30T08:01:47.281Z,61.83
2023-10-30T08:04:14.430Z,61.76
2023-10-30T08:06:41.538Z,61.81
2023-10-30T08:09:08.593Z,61.17
2023-10-30T08:11:35.527Z,61.48
2023-10-30T08:14:02.498Z,62.58
2023-10-30T08:16:29.525Z,61.93
2023-10-30T08:18:56.507Z,62.08
2023-10-30T08:21:23.563Z,62.46
2023-10-30T08:23:50.522Z,62.77
2023-10-30T08:26:17.465Z,61.83
2023-10-30T08:28:44.381Z,62.65
2023-10-30T08:31:11.527Z,63.47
2023-10-30T08:33:38.582Z,64.60
2023-10-30T08:36:05.577Z,63.76
2023-10-30T08:38:32.642Z,63.34
2023-10-30T08:40:59.560Z,62.54
2023-10-30T08:43:26.638Z,62.42
2023-10-30T08:45:53.634Z,62.52
2023-10-30T08:48:20.661Z,62.21
2023-10-30T08:50:47.678Z,61.71
2023-10-30T08:53:14.790Z,62.08
2023-10-30T08:55:41.796Z,61.44
2023-10-30T08:58:08.961Z,60.56
2023-10-30T09:00:36.227Z,60.32
2023-10-30T09:03:03.308Z,60.36
2023-10-30T09:05:30.641Z,61.23
2023-10-30T09:07:57.697Z,61.20
2023-10-30T09:10:24.648Z,61.05
2023-10-30T09:12:51.661Z,60.70
2023-10-30T09:15:18.617Z,61.41
2023-10-30T09:17:45.571Z,61.87
2023-10-30T09:20:12.647Z,60.29
2023-10-30T09:22:39.676Z,61.70
2023-10-30T09:25:06.595Z,60.93
2023-10-30T09:27:33.618Z,59.58
2023-10-30T09:30:00.578Z,58.96
2023-10-30T09:32:27.547Z,58.05
2023-10-30T09:34:54.497Z,59.06
2023-10-30T09:37:21.486Z,58.27
2023-10-30T09:39:48.681Z,58.58
2023-10-30T09:42:15.758Z,59.74
2023-10-30T09:44:42.775Z,58.65
2023-10-30T09:47:09.775Z,59.18
2023-10-30T09:49:36.702Z,59.46
2023-10-30T09:52:03.759Z,59.98
2023-10-30T09:54:30.785Z,60.49
2023-10-30T09:56:57.863Z,61.84
2023-10-30T09:59:24.809Z,60.90
2023-10-30T10:01:51.883Z,61.99
2023-10-30T10:04:18.981Z,61.59
2023-10-30T10:06:46.059Z,60.68
2023-10-30T10:09:13.070Z,62.03
2023-10-30T10:11:40.047Z,64.46
2023-10-30T10:14:07.510Z,63.77
2023-10-30T10:16:34.821Z,63.91
2023-10-30T10:19:01.817Z,63.77
2023-10-30T10:21:28.788Z,62.97
2023-10-30T10:23:55.879Z,64.25
2023-10-30T10:26:23.294Z,65.78
2023-10-30T10:28:50.206Z,64.12
2023-10-30T10:31:17.134Z,64.08
2023-10-30T10:33:45.171Z,65.37
2023-10-30T10:36:12.565Z,66.79
2023-10-30T10:38:39.470Z,66.64
2023-10-30T10:41:06.477Z,65.70
2023-10-30T10:43:33.396Z,68.36
2023-10-30T10:46:00.557Z,66.59
2023-10-30T10:48:27.583Z,65.82
2023-10-30T10:50:54.503Z,65.16
2023-10-30T10:53:21.477Z,66.05
2023-10-30T10:55:48.498Z,65.84
2023-10-30T10:58:15.462Z,65.06
2023-10-30T11:00:42.461Z,65.80
2023-10-30T11:03:09.536Z,66.86
2023-10-30T11:05:36.558Z,65.01
2023-10-30T11:08:03.585Z,64.51
2023-10-30T11:10:30.595Z,65.17
2023-10-30T11:12:57.661Z,64.88
2023-10-30T11:15:24.692Z,65.43
2023-10-30T11:17:51.655Z,64.82
2023-10-30T11:20:18.636Z,64.97
2023-10-30T11:22:45.555Z,65.28
2023-10-30T11:25:12.488Z,65.12
2023-10-30T11:27:39.434Z,64.17
2023-10-30T11:30:06.430Z,65.20
2023-10-30T11:32:33.467Z,65.30
2023-10-30T11:35:00.477Z,64.84
2023-10-30T11:37:27.396Z,65.78
2023-10-30T11:39:54.422Z,64.26
2023-10-30T11:42:21.335Z,63.09
2023-10-30T11:44:48.449Z,65.07
2023-10-30T11:47:15.516Z,63.83
2023-10-30T11:49:42.446Z,64.61
2023-10-30T11:52:09.435Z,64.34
2023-10-30T11:54:36.435Z,65.02
2023-10-30T11:57:03.419Z,65.77
2023-10-30T11:59:30.476Z,66.89
2023-10-30T12:01:57.514Z,66.32
2023-10-30T12:04:24.612Z,66.31
2023-10-30T12:06:52.178Z,66.14
2023-10-30T12:09:19.548Z,66.65
2023-10-30T12:11:46.995Z,66.41
2023-10-30T12:14:15.606Z,66.05
2023-10-30T12:16:42.745Z,66.78
2023-10-30T12:19:10.067Z,67.35
2023-10-30T12:21:37.224Z,67.71
2023-10-30T12:24:04.475Z,67.13
2023-10-30T12:26:32.394Z,67.83
2023-10-30T12:28:59.432Z,68.98
2023-10-30T12:31:26.591Z,68.38
2023-10-30T12:33:53.772Z,68.00
2023-10-30T12:36:22.596Z,68.12
2023-10-30T12:38:49.608Z,67.08
2023-10-30T12:41:16.612Z,66.41
2023-10-30T12:43:43.636Z,65.88
2023-10-30T12:46:10.669Z,65.92
2023-10-30T12:48:37.785Z,65.74
2023-10-30T12:51:04.851Z,66.37
2023-10-30T12:53:31.819Z,68.57
2023-10-30T12:55:58.737Z,70.41
2023-10-30T12:58:27.276Z,72.48
2023-10-30T13:03:24.507Z,74.70
2023-10-30T13:05:51.604Z,75.57
2023-10-30T13:08:18.535Z,74.46
2023-10-30T13:10:45.538Z,72.70
2023-10-30T13:13:12.554Z,70.73
2023-10-30T13:15:39.557Z,68.71
2023-10-30T13:18:06.769Z,69.98
2023-10-30T13:20:33.733Z,69.07
2023-10-30T13:23:00.701Z,66.95
2023-10-30T13:25:27.644Z,66.82
2023-10-30T13:27:54.651Z,66.54
2023-10-30T13:30:21.642Z,67.34
2023-10-30T13:32:48.601Z,68.18
2023-10-30T13:35:15.652Z,68.42
2023-10-30T13:37:42.641Z,68.76
2023-10-30T13:40:09.705Z,69.02
2023-10-30T13:42:36.793Z,69.66
2023-10-30T13:45:03.693Z,68.55
2023-10-30T13:47:30.657Z,68.83
2023-10-30T13:49:57.692Z,69.45
2023-10-30T13:52:24.654Z,69.04
2023-10-30T13:54:51.821Z,68.45
2023-10-30T13:57:19.023Z,69.35
2023-10-30T13:59:46.042Z,70.64
2023-10-30T14:02:13.483Z,68.75
2023-10-30T14:04:40.560Z,69.38
2023-10-30T14:07:07.600Z,69.15
2023-10-30T14:09:34.641Z,69.84
2023-10-30T14:12:01.620Z,70.27
2023-10-30T14:14:28.627Z,70.57
2023-10-30T14:16:55.640Z,70.83
2023-10-30T14:19:22.656Z,70.89
2023-10-30T14:21:49.686Z,71.62
2023-10-30T14:24:16.658Z,73.52
2023-10-30T14:26:43.656Z,73.11
2023-10-30T14:29:10.625Z,73.09
2023-10-30T14:31:37.652Z,73.59
2023-10-30T14:34:04.760Z,75.15
2023-10-30T14:36:31.794Z,73.15
2023-10-30T14:38:58.796Z,73.84
2023-10-30T14:41:25.756Z,72.37
2023-10-30T14:43:52.721Z,72.07
2023-10-30T14:46:19.726Z,72.33
2023-10-30T14:48:46.728Z,72.53
2023-10-30T14:51:13.799Z,71.98
2023-10-30T14:53:40.736Z,72.28
2023-10-30T14:56:07.735Z,71.50
2023-10-30T14:58:34.844Z,71.88
2023-10-30T15:01:01.900Z,71.25
2023-10-30T15:03:29.063Z,71.63
2023-10-30T15:05:56.269Z,71.75
2023-10-30T15:08:23.203Z,72.03
2023-10-30T15:10:50.120Z,72.61
2023-10-30T15:13:17.074Z,73.49
2023-10-30T15:15:44.215Z,72.86
2023-10-30T15:18:11.329Z,72.61
2023-10-30T15:20:38.335Z,72.85
2023-10-30T15:23:05.498Z,72.64
2023-10-30T15:25:32.479Z,72.33
2023-10-30T15:27:59.537Z,72.27
2023-10-30T15:30:26.540Z,72.33
2023-10-30T15:32:53.493Z,72.15
2023-10-30T15:35:20.453Z,72.27
2023-10-30T15:37:47.460Z,71.87
2023-10-30T15:40:14.425Z,71.79
2023-10-30T15:42:41.468Z,71.47
2023-10-30T15:45:08.476Z,71.71
2023-10-30T15:47:36.321Z,72.00
2023-10-30T15:50:03.556Z,72.22
2023-10-30T15:57:34.091Z,74.62
2023-10-30T16:00:01.017Z,74.33
2023-10-30T16:02:30.183Z,74.29
2023-10-30T16:05:01.979Z,74.41
2023-10-30T16:07:30.012Z,74.94
2023-10-30T16:12:26.799Z,75.48
2023-10-30T16:14:53.779Z,74.95
2023-10-30T16:17:20.807Z,74.49
2023-10-30T16:20:22.137Z,75.89
2023-10-30T16:22:34.753Z,75.96
2023-10-30T16:25:01.723Z,76.45
2023-10-30T16:27:28.624Z,76.37
2023-10-30T16:29:55.597Z,75.86
2023-10-30T16:32:22.567Z,76.77
2023-10-30T16:34:49.646Z,76.03
2023-10-30T16:37:16.768Z,74.80
2023-10-30T16:39:43.846Z,74.84
2023-10-30T16:42:11.014Z,74.88
2023-10-30T16:44:38.104Z,75.97
2023-10-30T16:47:05.187Z,76.71
2023-10-30T16:49:32.463Z,76.38
2023-10-30T16:51:59.550Z,75.04
2023-10-30T16:54:26.582Z,76.76
2023-10-30T16:56:53.520Z,75.62
2023-10-30T16:59:20.522Z,77.72
2023-10-30T17:01:47.554Z,76.62
2023-10-30T17:04:14.462Z,76.20
2023-10-30T17:06:41.485Z,74.32
2023-10-30T17:09:08.435Z,75.57
2023-10-30T17:11:35.631Z,75.30
2023-10-30T17:14:02.724Z,77.07
2023-10-30T17:16:29.772Z,75.78
2023-10-30T17:18:56.764Z,75.58
2023-10-30T17:21:23.733Z,78.43
2023-10-30T17:23:50.680Z,77.70
2023-10-30T17:26:17.719Z,77.63
2023-10-30T17:28:44.694Z,78.81
2023-10-30T17:31:11.763Z,79.60
2023-10-30T17:33:38.644Z,77.65
2023-10-30T17:36:05.695Z,78.74
2023-10-30T17:38:32.646Z,76.98
2023-10-30T17:40:59.693Z,78.50
2023-10-30T17:43:26.783Z,77.90
2023-10-30T17:45:53.783Z,77.47
2023-10-30T17:48:20.796Z,77.09
2023-10-30T17:50:47.844Z,76.33
2023-10-30T17:53:14.878Z,74.97
2023-10-30T17:55:41.865Z,76.62
2023-10-30T17:58:08.834Z,77.18
2023-10-30T18:00:35.837Z,77.47
2023-10-30T18:03:02.917Z,78.93
2023-10-30T18:05:29.913Z,78.72
2023-10-30T18:07:56.818Z,76.77
2023-10-30T18:10:23.942Z,76.72
2023-10-30T18:12:51.061Z,76.86
2023-10-30T18:15:18.075Z,79.77
2023-10-30T18:17:45.053Z,78.37
2023-10-30T18:20:12.057Z,79.53
2023-10-30T18:22:39.059Z,79.23
2023-10-30T18:25:06.295Z,77.15
2023-10-30T18:27:33.495Z,76.60
2023-10-30T18:30:00.572Z,76.97
2023-10-30T18:32:27.592Z,78.06
2023-10-30T18:34:54.651Z,76.30
2023-10-30T18:37:21.716Z,75.76
2023-10-30T18:39:49.053Z,75.30
2023-10-30T18:42:16.197Z,75.13
2023-10-30T18:44:43.268Z,74.63
2023-10-30T18:47:10.357Z,74.67
2023-10-30T18:49:37.384Z,75.03
2023-10-30T18:52:04.468Z,74.02
2023-10-30T18:54:31.442Z,74.30
2023-10-30T18:56:58.423Z,74.37
2023-10-30T18:59:25.481Z,74.93
2023-10-30T19:01:52.515Z,74.84
2023-10-30T19:04:19.479Z,74.77
2023-10-30T19:06:46.499Z,74.32
2023-10-30T19:09:13.457Z,75.48
2023-10-30T19:11:40.457Z,75.32
2023-10-30T19:14:07.403Z,75.04
2023-10-30T19:16:34.528Z,74.73
2023-10-30T19:19:01.503Z,74.50
2023-10-30T19:21:28.470Z,73.91
2023-10-30T19:23:55.523Z,74.01
2023-10-30T19:26:22.448Z,73.60
2023-10-30T19:28:49.456Z,73.33
2023-10-30T19:31:16.550Z,73.51
2023-10-30T19:33:43.567Z,72.71
2023-10-30T19:36:10.558Z,72.74
2023-10-30T19:38:37.506Z,72.67
2023-10-30T19:41:04.501Z,74.12
2023-10-30T19:43:31.517Z,74.41
2023-10-30T19:45:58.570Z,73.95
2023-10-30T19:48:25.527Z,73.32
2023-10-30T19:50:52.457Z,73.71
2023-10-30T19:53:19.436Z,74.11
2023-10-30T19:55:46.455Z,74.26
2023-10-30T19:58:13.414Z,73.78
2023-10-30T20:00:40.416Z,73.73
2023-10-30T20:03:07.390Z,73.90
2023-10-30T20:05:34.412Z,72.90
2023-10-30T20:08:01.569Z,74.24
2023-10-30T20:10:37.318Z,75.60
2023-10-30T20:13:05.551Z,75.70
2023-10-30T20:15:32.567Z,76.90
2023-10-30T20:17:59.613Z,78.50
2023-10-30T20:20:26.640Z,79.01
2023-10-30T20:22:53.706Z,79.25
2023-10-30T20:25:20.893Z,76.90
2023-10-30T20:27:47.856Z,77.61
2023-10-30T20:30:14.859Z,76.66
2023-10-30T20:32:41.934Z,76.83
2023-10-30T20:35:08.998Z,76.51
2023-10-30T20:37:35.947Z,75.25
2023-10-30T20:40:02.931Z,76.35
2023-10-30T20:42:29.948Z,77.42
2023-10-30T20:44:56.900Z,76.99
2023-10-30T20:47:23.836Z,77.75
2023-10-30T20:49:51.050Z,76.69
2023-10-30T20:52:18.132Z,77.07
2023-10-30T20:54:45.076Z,77.37
2023-10-30T20:57:12.032Z,77.05
2023-10-30T20:59:39.252Z,77.21
2023-10-30T21:02:06.232Z,77.17
2023-10-30T21:04:33.329Z,75.72
2023-10-30T21:07:00.270Z,75.50
2023-10-30T21:09:27.178Z,77.46
2023-10-30T21:11:54.136Z,77.66
2023-10-30T21:14:21.058Z,77.31
2023-10-30T21:16:48.092Z,79.52
2023-10-30T21:19:15.115Z,79.16
2023-10-30T21:21:42.149Z,79.92
2023-10-30T21:24:09.116Z,78.91
2023-10-30T21:26:36.096Z,80.00
2023-10-30T21:29:03.128Z,78.99
2023-10-30T21:31:30.210Z,78.95
2023-10-30T21:33:57.142Z,78.84
2023-10-30T21:36:24.157Z,79.35
2023-10-30T21:38:51.099Z,78.44
2023-10-30T21:41:18.116Z,77.35
2023-10-30T21:43:45.139Z,76.92
2023-10-30T21:46:12.177Z,76.01
2023-10-30T21:48:39.403Z,74.89
2023-10-30T21:51:06.339Z,75.77
2023-10-30T21:53:33.486Z,77.59
2023-10-30T21:56:00.596Z,75.89
2023-10-30T21:58:27.553Z,76.94
2023-10-30T22:00:54.495Z,75.21
2023-10-30T22:03:21.482Z,75.63
2023-10-30T22:05:48.605Z,75.87
2023-10-30T22:08:15.618Z,74.79
2023-10-30T22:10:42.683Z,74.54
2023-10-30T22:13:09.698Z,74.42
2023-10-30T22:15:36.656Z,76.38
2023-10-30T22:18:03.631Z,74.54
2023-10-30T22:20:30.669Z,74.68
2023-10-30T22:22:57.710Z,74.01
2023-10-30T22:25:24.890Z,75.56
2023-10-30T22:27:51.989Z,74.71
2023-10-30T22:30:18.998Z,77.15
2023-10-30T22:32:45.926Z,75.21
2023-10-30T22:35:13.001Z,74.47
2023-10-30T22:37:40.104Z,74.88
2023-10-30T22:40:07.091Z,74.61
2023-10-30T22:42:34.137Z,74.62
2023-10-30T22:45:01.107Z,75.58
2023-10-30T22:47:28.078Z,76.27
2023-10-30T22:49:55.191Z,73.52
2023-10-30T22:52:22.180Z,75.03
2023-10-30T22:54:49.413Z,75.32
2023-10-30T22:57:16.652Z,74.27
2023-10-30T22:59:43.636Z,75.15
2023-10-30T23:02:10.607Z,74.81
2023-10-30T23:04:37.646Z,75.56
2023-10-30T23:07:04.641Z,74.56
2023-10-30T23:09:31.620Z,72.36
2023-10-30T23:11:58.562Z,72.95
2023-10-30T23:14:25.517Z,72.57
2023-10-30T23:16:52.524Z,71.92
2023-10-30T23:19:19.612Z,73.40
2023-10-30T23:21:46.565Z,72.49
2023-10-30T23:24:13.537Z,72.52
2023-10-30T23:26:40.552Z,70.94
2023-10-30T23:29:07.568Z,71.07
2023-10-30T23:31:34.631Z,70.03
2023-10-30T23:34:01.656Z,70.47
2023-10-30T23:36:28.689Z,70.16
2023-10-30T23:38:55.636Z,69.59
2023-10-30T23:41:22.630Z,69.97
2023-10-30T23:43:49.647Z,69.96
2023-10-30T23:46:20.374Z,70.44
2023-10-30T23:48:52.205Z,70.02
2023-10-30T23:51:19.216Z,70.50
2023-10-30T23:53:46.148Z,70.58
2023-10-30T23:56:13.138Z,70.15
2023-10-30T23:58:40.199Z,71.52
